sensor_id;sensor_type;location;lat;lon;timestamp;pressure;altitude;pressure_sealevel;temperature;humidity
23589;BME280;11972;48.078;11.876;2022-11-15T00:00:39;95365.28;;;2.35;100.00
23589;BME280;11972;48.078;11.876;2022-11-15T00:04:39;95368.44;;;2.39;100.00
23589;BME280;11972;48.078;11.876;2022-11-15T00:08:40;95365.44;;;2.43;100.00
23589;BME280;11972;48.078;11.876;2022-11-15T00:12:40;95360.88;;;2.45;100.00
23589;BME280;11972;48.078;11.876;2022-11-15T00:16:40;95354.69;;;2.46;100.00
23589;BME280;11972;48.078;11.876;2022-11-15T00:20:41;95350.59;;;2.44;100.00
23589;BME280;11972;48.078;11.876;2022-11-15T00:24:41;95348.66;;;2.46;100.00
23589;BME280;11972;48.078;11.876;2022-11-15T00:28:42;95346.88;;;2.46;100.00
23589;BME280;11972;48.078;11.876;2022-11-15T00:32:43;95346.47;;;2.41;100.00
23589;BME280;11972;48.078;11.876;2022-11-15T00:36:43;95338.09;;;2.38;100.00
23589;BME280;11972;48.078;11.876;2022-11-15T00:40:43;95337.97;;;2.39;100.00
23589;BME280;11972;48.078;11.876;2022-11-15T00:44:45;95323.97;;;2.40;100.00
23589;BME280;11972;48.078;11.876;2022-11-15T00:48:45;95326.75;;;2.39;100.00
23589;BME280;11972;48.078;11.876;2022-11-15T00:52:46;95328.78;;;2.35;100.00
23589;BME280;11972;48.078;11.876;2022-11-15T00:56:46;95323.84;;;2.32;100.00
23589;BME280;11972;48.078;11.876;2022-11-15T01:00:46;95326.84;;;2.28;100.00
23589;BME280;11972;48.078;11.876;2022-11-15T01:04:47;95325.47;;;2.23;100.00
23589;BME280;11972;48.078;11.876;2022-11-15T01:08:47;95321.50;;;2.19;100.00
23589;BME280;11972;48.078;11.876;2022-11-15T01:12:48;95319.97;;;2.17;100.00
23589;BME280;11972;48.078;11.876;2022-11-15T01:16:48;95314.63;;;2.09;100.00
23589;BME280;11972;48.078;11.876;2022-11-15T01:20:49;95314.06;;;2.05;100.00
23589;BME280;11972;48.078;11.876;2022-11-15T01:24:50;95319.31;;;2.15;100.00
23589;BME280;11972;48.078;11.876;2022-11-15T01:28:51;95308.31;;;2.21;100.00
23589;BME280;11972;48.078;11.876;2022-11-15T01:32:51;95310.25;;;2.19;100.00
23589;BME280;11972;48.078;11.876;2022-11-15T01:36:51;95297.75;;;2.13;100.00
23589;BME280;11972;48.078;11.876;2022-11-15T01:40:52;95295.41;;;2.10;100.00
23589;BME280;11972;48.078;11.876;2022-11-15T01:44:52;95290.50;;;2.07;100.00
23589;BME280;11972;48.078;11.876;2022-11-15T01:48:57;95275.13;;;2.04;100.00
23589;BME280;11972;48.078;11.876;2022-11-15T01:52:59;95273.50;;;2.03;100.00
23589;BME280;11972;48.078;11.876;2022-11-15T01:57:04;95278.00;;;2.01;100.00
23589;BME280;11972;48.078;11.876;2022-11-15T02:01:07;95270.34;;;1.99;100.00
23589;BME280;11972;48.078;11.876;2022-11-15T02:05:07;95268.81;;;1.96;100.00
23589;BME280;11972;48.078;11.876;2022-11-15T02:09:08;95267.19;;;1.95;100.00
23589;BME280;11972;48.078;11.876;2022-11-15T02:13:09;95256.91;;;1.94;100.00
23589;BME280;11972;48.078;11.876;2022-11-15T02:42:26;95226.31;;;1.86;100.00
23589;BME280;11972;48.078;11.876;2022-11-15T02:47:04;95216.88;;;1.85;100.00
23589;BME280;11972;48.078;11.876;2022-11-15T02:51:13;95213.41;;;1.85;100.00
23589;BME280;11972;48.078;11.876;2022-11-15T02:55:27;95203.00;;;1.85;100.00
23589;BME280;11972;48.078;11.876;2022-11-15T03:13:18;95201.66;;;1.90;100.00
23589;BME280;11972;48.078;11.876;2022-11-15T03:17:18;95195.63;;;1.90;100.00
23589;BME280;11972;48.078;11.876;2022-11-15T03:21:23;95194.66;;;1.91;100.00
23589;BME280;11972;48.078;11.876;2022-11-15T03:25:25;95196.44;;;1.90;100.00
23589;BME280;11972;48.078;11.876;2022-11-15T03:29:34;95191.34;;;1.89;100.00
23589;BME280;11972;48.078;11.876;2022-11-15T03:33:36;95185.47;;;1.87;100.00
23589;BME280;11972;48.078;11.876;2022-11-15T03:37:41;95179.84;;;1.91;100.00
23589;BME280;11972;48.078;11.876;2022-11-15T03:45:55;95175.88;;;2.07;100.00
23589;BME280;11972;48.078;11.876;2022-11-15T03:50:03;95170.50;;;2.18;100.00
23589;BME280;11972;48.078;11.876;2022-11-15T03:54:05;95171.16;;;2.39;100.00
23589;BME280;11972;48.078;11.876;2022-11-15T03:58:06;95174.78;;;2.66;100.00
23589;BME280;11972;48.078;11.876;2022-11-15T04:02:06;95180.59;;;2.87;100.00
23589;BME280;11972;48.078;11.876;2022-11-15T04:06:07;95173.66;;;3.06;100.00
23589;BME280;11972;48.078;11.876;2022-11-15T04:10:09;95170.28;;;3.23;100.00
23589;BME280;11972;48.078;11.876;2022-11-15T04:14:09;95172.00;;;3.32;100.00
23589;BME280;11972;48.078;11.876;2022-11-15T04:18:10;95168.66;;;3.22;100.00
23589;BME280;11972;48.078;11.876;2022-11-15T04:22:10;95164.16;;;3.14;100.00
23589;BME280;11972;48.078;11.876;2022-11-15T04:26:29;95156.88;;;3.08;100.00
23589;BME280;11972;48.078;11.876;2022-11-15T04:30:29;95151.72;;;2.98;100.00
23589;BME280;11972;48.078;11.876;2022-11-15T04:34:30;95144.91;;;2.88;100.00
23589;BME280;11972;48.078;11.876;2022-11-15T04:38:31;95136.97;;;2.80;100.00
23589;BME280;11972;48.078;11.876;2022-11-15T04:42:31;95134.25;;;2.71;100.00
23589;BME280;11972;48.078;11.876;2022-11-15T04:46:31;95125.78;;;2.69;100.00
23589;BME280;11972;48.078;11.876;2022-11-15T04:50:32;95123.97;;;2.70;100.00
23589;BME280;11972;48.078;11.876;2022-11-15T04:54:32;95112.56;;;2.71;100.00
23589;BME280;11972;48.078;11.876;2022-11-15T04:58:32;95116.41;;;2.77;100.00
23589;BME280;11972;48.078;11.876;2022-11-15T05:02:33;95109.22;;;2.88;100.00
23589;BME280;11972;48.078;11.876;2022-11-15T05:06:52;95105.38;;;2.92;100.00
23589;BME280;11972;48.078;11.876;2022-11-15T05:10:53;95109.97;;;2.98;100.00
23589;BME280;11972;48.078;11.876;2022-11-15T05:14:53;95104.75;;;2.98;100.00
23589;BME280;11972;48.078;11.876;2022-11-15T05:18:54;95108.88;;;3.01;100.00
23589;BME280;11972;48.078;11.876;2022-11-15T05:22:54;95104.47;;;3.02;100.00
23589;BME280;11972;48.078;11.876;2022-11-15T05:26:55;95101.19;;;2.99;100.00
23589;BME280;11972;48.078;11.876;2022-11-15T05:31:09;95094.94;;;2.92;100.00
23589;BME280;11972;48.078;11.876;2022-11-15T05:35:17;95098.78;;;2.88;100.00
23589;BME280;11972;48.078;11.876;2022-11-15T05:39:19;95094.06;;;2.92;100.00
23589;BME280;11972;48.078;11.876;2022-11-15T05:43:20;95097.38;;;2.94;100.00
23589;BME280;11972;48.078;11.876;2022-11-15T05:47:23;95099.59;;;2.89;100.00
23589;BME280;11972;48.078;11.876;2022-11-15T05:51:27;95091.97;;;2.78;100.00
23589;BME280;11972;48.078;11.876;2022-11-15T05:55:28;95091.72;;;2.71;100.00
23589;BME280;11972;48.078;11.876;2022-11-15T05:59:30;95091.63;;;2.63;100.00
23589;BME280;11972;48.078;11.876;2022-11-15T06:03:31;95095.91;;;2.54;100.00
23589;BME280;11972;48.078;11.876;2022-11-15T06:07:32;95089.34;;;2.50;100.00
23589;BME280;11972;48.078;11.876;2022-11-15T06:11:32;95082.59;;;2.57;100.00
23589;BME280;11972;48.078;11.876;2022-11-15T06:15:33;95077.31;;;2.67;100.00
23589;BME280;11972;48.078;11.876;2022-11-15T06:19:34;95083.16;;;2.79;100.00
23589;BME280;11972;48.078;11.876;2022-11-15T06:23:35;95076.66;;;2.92;100.00
23589;BME280;11972;48.078;11.876;2022-11-15T06:27:36;95073.47;;;2.98;100.00
23589;BME280;11972;48.078;11.876;2022-11-15T06:31:36;95076.44;;;3.04;100.00
23589;BME280;11972;48.078;11.876;2022-11-15T06:35:36;95072.81;;;3.14;100.00
23589;BME280;11972;48.078;11.876;2022-11-15T06:39:37;95065.88;;;3.23;100.00
23589;BME280;11972;48.078;11.876;2022-11-15T06:43:39;95066.78;;;3.32;100.00
23589;BME280;11972;48.078;11.876;2022-11-15T06:47:46;95075.66;;;3.39;100.00
23589;BME280;11972;48.078;11.876;2022-11-15T06:51:46;95076.03;;;3.44;100.00
23589;BME280;11972;48.078;11.876;2022-11-15T06:55:47;95085.72;;;3.52;100.00
23589;BME280;11972;48.078;11.876;2022-11-15T06:59:48;95075.06;;;3.63;100.00
23589;BME280;11972;48.078;11.876;2022-11-15T07:03:48;95077.00;;;3.79;100.00
23589;BME280;11972;48.078;11.876;2022-11-15T07:07:53;95075.09;;;3.89;100.00
23589;BME280;11972;48.078;11.876;2022-11-15T07:11:53;95072.72;;;3.95;100.00
23589;BME280;11972;48.078;11.876;2022-11-15T07:15:54;95073.13;;;4.09;100.00
23589;BME280;11972;48.078;11.876;2022-11-15T07:19:54;95076.81;;;4.24;100.00
23589;BME280;11972;48.078;11.876;2022-11-15T07:23:55;95079.97;;;4.36;100.00
23589;BME280;11972;48.078;11.876;2022-11-15T07:27:59;95063.88;;;4.48;100.00
23589;BME280;11972;48.078;11.876;2022-11-15T07:31:59;95064.91;;;4.64;100.00
23589;BME280;11972;48.078;11.876;2022-11-15T07:36:04;95062.19;;;4.73;100.00
23589;BME280;11972;48.078;11.876;2022-11-15T07:40:05;95067.59;;;4.80;100.00
23589;BME280;11972;48.078;11.876;2022-11-15T07:44:06;95067.00;;;4.86;100.00
23589;BME280;11972;48.078;11.876;2022-11-15T07:48:06;95064.41;;;4.94;100.00
23589;BME280;11972;48.078;11.876;2022-11-15T07:52:06;95060.16;;;5.02;100.00
23589;BME280;11972;48.078;11.876;2022-11-15T07:56:07;95061.50;;;5.14;100.00
23589;BME280;11972;48.078;11.876;2022-11-15T08:00:08;95059.25;;;5.27;100.00
23589;BME280;11972;48.078;11.876;2022-11-15T08:04:10;95061.56;;;5.46;100.00
23589;BME280;11972;48.078;11.876;2022-11-15T08:08:11;95053.06;;;5.61;100.00
23589;BME280;11972;48.078;11.876;2022-11-15T08:12:11;95056.34;;;5.71;100.00
23589;BME280;11972;48.078;11.876;2022-11-15T08:16:11;95047.97;;;5.84;100.00
23589;BME280;11972;48.078;11.876;2022-11-15T08:20:12;95043.91;;;5.97;100.00
23589;BME280;11972;48.078;11.876;2022-11-15T08:24:13;95047.47;;;6.13;100.00
23589;BME280;11972;48.078;11.876;2022-11-15T08:28:16;95048.94;;;6.32;100.00
23589;BME280;11972;48.078;11.876;2022-11-15T08:32:17;95037.06;;;6.52;100.00
23589;BME280;11972;48.078;11.876;2022-11-15T08:36:17;95024.72;;;6.69;100.00
23589;BME280;11972;48.078;11.876;2022-11-15T08:40:18;95022.03;;;6.85;100.00
23589;BME280;11972;48.078;11.876;2022-11-15T08:44:19;94997.16;;;7.04;100.00
23589;BME280;11972;48.078;11.876;2022-11-15T08:48:20;94991.91;;;7.27;100.00
23589;BME280;11972;48.078;11.876;2022-11-15T08:52:20;94995.53;;;7.49;100.00
23589;BME280;11972;48.078;11.876;2022-11-15T08:56:20;94980.94;;;7.69;100.00
23589;BME280;11972;48.078;11.876;2022-11-15T09:00:21;94977.91;;;7.95;100.00
23589;BME280;11972;48.078;11.876;2022-11-15T09:04:21;94971.94;;;8.16;100.00
23589;BME280;11972;48.078;11.876;2022-11-15T09:08:22;94970.22;;;8.38;100.00
23589;BME280;11972;48.078;11.876;2022-11-15T09:12:22;94964.88;;;8.61;100.00
23589;BME280;11972;48.078;11.876;2022-11-15T09:16:23;94958.84;;;8.82;100.00
23589;BME280;11972;48.078;11.876;2022-11-15T09:20:23;94963.00;;;8.91;100.00
23589;BME280;11972;48.078;11.876;2022-11-15T09:24:23;94960.44;;;8.98;100.00
23589;BME280;11972;48.078;11.876;2022-11-15T09:28:24;94961.22;;;9.13;100.00
23589;BME280;11972;48.078;11.876;2022-11-15T09:32:28;94968.44;;;9.26;100.00
23589;BME280;11972;48.078;11.876;2022-11-15T09:36:29;94973.06;;;9.45;100.00
23589;BME280;11972;48.078;11.876;2022-11-15T09:40:31;94963.09;;;9.62;100.00
23589;BME280;11972;48.078;11.876;2022-11-15T09:48:50;94960.25;;;9.85;100.00
23589;BME280;11972;48.078;11.876;2022-11-15T09:52:54;94955.06;;;9.99;100.00
23589;BME280;11972;48.078;11.876;2022-11-15T09:57:11;94942.34;;;10.09;100.00
23589;BME280;11972;48.078;11.876;2022-11-15T10:05:49;94923.50;;;10.47;100.00
23589;BME280;11972;48.078;11.876;2022-11-15T10:09:58;94915.41;;;10.55;100.00
23589;BME280;11972;48.078;11.876;2022-11-15T10:14:08;94906.53;;;10.69;100.00
23589;BME280;11972;48.078;11.876;2022-11-15T10:22:40;94881.63;;;10.98;100.00
23589;BME280;11972;48.078;11.876;2022-11-15T10:26:48;94878.41;;;11.16;100.00
23589;BME280;11972;48.078;11.876;2022-11-15T10:30:51;94871.31;;;11.30;100.00
23589;BME280;11972;48.078;11.876;2022-11-15T10:34:52;94872.13;;;11.43;100.00
23589;BME280;11972;48.078;11.876;2022-11-15T10:38:54;94858.91;;;11.57;100.00
23589;BME280;11972;48.078;11.876;2022-11-15T10:47:30;94845.69;;;11.90;100.00
23589;BME280;11972;48.078;11.876;2022-11-15T10:51:31;94836.28;;;12.01;100.00
23589;BME280;11972;48.078;11.876;2022-11-15T10:55:32;94833.38;;;12.15;100.00
23589;BME280;11972;48.078;11.876;2022-11-15T10:59:36;94829.28;;;12.26;100.00
23589;BME280;11972;48.078;11.876;2022-11-15T11:03:38;94830.88;;;12.34;100.00
23589;BME280;11972;48.078;11.876;2022-11-15T11:07:39;94824.34;;;12.36;100.00
23589;BME280;11972;48.078;11.876;2022-11-15T11:11:46;94812.53;;;12.39;100.00
23589;BME280;11972;48.078;11.876;2022-11-15T11:20:21;94801.72;;;12.40;100.00
23589;BME280;11972;48.078;11.876;2022-11-15T11:24:47;94801.47;;;12.49;100.00
23589;BME280;11972;48.078;11.876;2022-11-15T11:29:16;94792.25;;;12.58;100.00
23589;BME280;11972;48.078;11.876;2022-11-15T11:33:36;94776.91;;;12.66;100.00
23589;BME280;11972;48.078;11.876;2022-11-15T11:46:48;94781.41;;;12.66;100.00
23589;BME280;11972;48.078;11.876;2022-11-15T11:50:49;94767.97;;;12.68;100.00
23589;BME280;11972;48.078;11.876;2022-11-15T11:55:01;94770.22;;;12.64;100.00
23589;BME280;11972;48.078;11.876;2022-11-15T11:59:12;94759.44;;;12.59;100.00
23589;BME280;11972;48.078;11.876;2022-11-15T12:07:24;94742.34;;;12.55;100.00
23589;BME280;11972;48.078;11.876;2022-11-15T12:15:33;94727.84;;;12.64;100.00
23589;BME280;11972;48.078;11.876;2022-11-15T12:19:37;94721.13;;;12.61;100.00
23589;BME280;11972;48.078;11.876;2022-11-15T12:23:46;94717.06;;;12.59;100.00
23589;BME280;11972;48.078;11.876;2022-11-15T12:28:11;94709.72;;;12.61;100.00
23589;BME280;11972;48.078;11.876;2022-11-15T12:36:51;94696.91;;;12.58;100.00
23589;BME280;11972;48.078;11.876;2022-11-15T12:45:44;94700.84;;;12.49;100.00
23589;BME280;11972;48.078;11.876;2022-11-15T12:49:45;94708.16;;;12.47;100.00
23589;BME280;11972;48.078;11.876;2022-11-15T12:53:46;94706.63;;;12.39;100.00
23589;BME280;11972;48.078;11.876;2022-11-15T12:57:46;94700.16;;;12.28;100.00
23589;BME280;11972;48.078;11.876;2022-11-15T13:05:55;94696.31;;;12.24;100.00
23589;BME280;11972;48.078;11.876;2022-11-15T13:09:56;94689.22;;;12.18;100.00
23589;BME280;11972;48.078;11.876;2022-11-15T13:13:56;94690.47;;;12.09;100.00
23589;BME280;11972;48.078;11.876;2022-11-15T13:17:57;94691.72;;;12.06;100.00
23589;BME280;11972;48.078;11.876;2022-11-15T13:21:57;94693.81;;;11.98;100.00
23589;BME280;11972;48.078;11.876;2022-11-15T13:26:24;94694.63;;;11.91;100.00
23589;BME280;11972;48.078;11.876;2022-11-15T13:30:27;94686.50;;;11.86;100.00
23589;BME280;11972;48.078;11.876;2022-11-15T13:34:32;94684.66;;;11.80;100.00
23589;BME280;11972;48.078;11.876;2022-11-15T13:38:36;94679.19;;;11.75;100.00
23589;BME280;11972;48.078;11.876;2022-11-15T13:42:37;94673.09;;;11.68;100.00
23589;BME280;11972;48.078;11.876;2022-11-15T13:46:37;94675.97;;;11.73;100.00
23589;BME280;11972;48.078;11.876;2022-11-15T13:50:38;94671.50;;;11.67;100.00
23589;BME280;11972;48.078;11.876;2022-11-15T13:55:02;94668.50;;;11.57;100.00
23589;BME280;11972;48.078;11.876;2022-11-15T13:59:09;94666.66;;;11.51;100.00
23589;BME280;11972;48.078;11.876;2022-11-15T14:03:27;94663.44;;;11.49;100.00
23589;BME280;11972;48.078;11.876;2022-11-15T14:07:29;94651.13;;;11.67;100.00
23589;BME280;11972;48.078;11.876;2022-11-15T14:11:30;94652.56;;;11.70;100.00
23589;BME280;11972;48.078;11.876;2022-11-15T14:15:33;94650.78;;;11.57;100.00
23589;BME280;11972;48.078;11.876;2022-11-15T14:19:36;94646.16;;;11.39;100.00
23589;BME280;11972;48.078;11.876;2022-11-15T14:23:36;94650.09;;;11.24;100.00
23589;BME280;11972;48.078;11.876;2022-11-15T14:27:36;94660.47;;;11.12;100.00
23589;BME280;11972;48.078;11.876;2022-11-15T14:31:37;94648.91;;;11.00;100.00
23589;BME280;11972;48.078;11.876;2022-11-15T14:35:40;94648.09;;;10.86;100.00
23589;BME280;11972;48.078;11.876;2022-11-15T14:39:41;94656.84;;;10.80;100.00
23589;BME280;11972;48.078;11.876;2022-11-15T14:43:41;94658.28;;;10.69;100.00
23589;BME280;11972;48.078;11.876;2022-11-15T14:47:42;94662.13;;;10.53;100.00
23589;BME280;11972;48.078;11.876;2022-11-15T14:51:42;94670.22;;;10.32;100.00
23589;BME280;11972;48.078;11.876;2022-11-15T14:55:43;94661.44;;;10.05;100.00
23589;BME280;11972;48.078;11.876;2022-11-15T14:59:43;94667.06;;;9.75;100.00
23589;BME280;11972;48.078;11.876;2022-11-15T15:03:44;94664.50;;;9.47;100.00
23589;BME280;11972;48.078;11.876;2022-11-15T15:07:45;94662.34;;;9.23;100.00
23589;BME280;11972;48.078;11.876;2022-11-15T15:11:45;94661.38;;;8.95;100.00
23589;BME280;11972;48.078;11.876;2022-11-15T15:15:47;94669.69;;;8.71;100.00
23589;BME280;11972;48.078;11.876;2022-11-15T15:19:47;94664.28;;;8.51;100.00
23589;BME280;11972;48.078;11.876;2022-11-15T15:23:48;94667.72;;;8.30;100.00
23589;BME280;11972;48.078;11.876;2022-11-15T15:27:49;94663.09;;;8.11;100.00
23589;BME280;11972;48.078;11.876;2022-11-15T15:31:49;94658.91;;;7.95;100.00
23589;BME280;11972;48.078;11.876;2022-11-15T15:35:50;94669.66;;;7.79;100.00
23589;BME280;11972;48.078;11.876;2022-11-15T15:39:51;94674.03;;;7.57;100.00
23589;BME280;11972;48.078;11.876;2022-11-15T15:43:52;94677.25;;;7.37;100.00
23589;BME280;11972;48.078;11.876;2022-11-15T15:47:53;94668.28;;;7.17;100.00
23589;BME280;11972;48.078;11.876;2022-11-15T15:51:53;94676.09;;;6.95;100.00
23589;BME280;11972;48.078;11.876;2022-11-15T15:55:53;94672.97;;;6.77;100.00
23589;BME280;11972;48.078;11.876;2022-11-15T15:59:57;94677.38;;;6.62;100.00
23589;BME280;11972;48.078;11.876;2022-11-15T16:03:58;94679.19;;;6.46;100.00
23589;BME280;11972;48.078;11.876;2022-11-15T16:07:58;94670.44;;;6.31;100.00
23589;BME280;11972;48.078;11.876;2022-11-15T16:11:58;94665.53;;;6.13;100.00
23589;BME280;11972;48.078;11.876;2022-11-15T16:15:59;94675.13;;;5.98;100.00
23589;BME280;11972;48.078;11.876;2022-11-15T16:20:00;94678.81;;;5.81;100.00
23589;BME280;11972;48.078;11.876;2022-11-15T16:24:01;94661.91;;;5.60;100.00
23589;BME280;11972;48.078;11.876;2022-11-15T16:28:02;94653.63;;;5.48;100.00
23589;BME280;11972;48.078;11.876;2022-11-15T16:32:02;94658.38;;;5.45;100.00
23589;BME280;11972;48.078;11.876;2022-11-15T16:36:18;94651.66;;;5.42;100.00
23589;BME280;11972;48.078;11.876;2022-11-15T16:40:30;94657.75;;;5.35;100.00
23589;BME280;11972;48.078;11.876;2022-11-15T16:44:31;94652.41;;;5.28;100.00
23589;BME280;11972;48.078;11.876;2022-11-15T16:48:31;94647.16;;;5.28;100.00
23589;BME280;11972;48.078;11.876;2022-11-15T16:52:33;94650.78;;;5.27;100.00
23589;BME280;11972;48.078;11.876;2022-11-15T16:56:34;94663.53;;;5.22;100.00
23589;BME280;11972;48.078;11.876;2022-11-15T17:00:35;94660.16;;;5.13;100.00
23589;BME280;11972;48.078;11.876;2022-11-15T17:04:35;94660.03;;;5.07;100.00
23589;BME280;11972;48.078;11.876;2022-11-15T17:08:35;94662.31;;;5.02;100.00
23589;BME280;11972;48.078;11.876;2022-11-15T17:12:36;94655.63;;;4.99;100.00
23589;BME280;11972;48.078;11.876;2022-11-15T17:16:36;94642.22;;;5.02;100.00
23589;BME280;11972;48.078;11.876;2022-11-15T17:20:41;94641.03;;;5.05;100.00
23589;BME280;11972;48.078;11.876;2022-11-15T17:24:42;94638.72;;;5.10;100.00
23589;BME280;11972;48.078;11.876;2022-11-15T17:28:42;94634.78;;;5.14;100.00
23589;BME280;11972;48.078;11.876;2022-11-15T17:32:43;94640.97;;;5.21;100.00
23589;BME280;11972;48.078;11.876;2022-11-15T17:36:43;94630.16;;;5.24;100.00
23589;BME280;11972;48.078;11.876;2022-11-15T17:40:43;94624.47;;;5.20;100.00
23589;BME280;11972;48.078;11.876;2022-11-15T17:44:44;94619.03;;;5.22;100.00
23589;BME280;11972;48.078;11.876;2022-11-15T17:48:45;94620.69;;;5.23;100.00
23589;BME280;11972;48.078;11.876;2022-11-15T17:52:45;94615.91;;;5.27;100.00
23589;BME280;11972;48.078;11.876;2022-11-15T17:56:46;94621.63;;;5.30;100.00
23589;BME280;11972;48.078;11.876;2022-11-15T18:00:47;94608.53;;;5.30;100.00
23589;BME280;11972;48.078;11.876;2022-11-15T18:04:47;94585.97;;;5.29;100.00
23589;BME280;11972;48.078;11.876;2022-11-15T18:08:49;94588.91;;;5.26;100.00
23589;BME280;11972;48.078;11.876;2022-11-15T18:12:50;94584.19;;;5.21;100.00
23589;BME280;11972;48.078;11.876;2022-11-15T18:16:50;94581.28;;;5.16;100.00
23589;BME280;11972;48.078;11.876;2022-11-15T18:21:11;94575.63;;;5.05;100.00
23589;BME280;11972;48.078;11.876;2022-11-15T18:25:11;94581.22;;;4.93;100.00
23589;BME280;11972;48.078;11.876;2022-11-15T18:29:15;94580.63;;;4.83;100.00
23589;BME280;11972;48.078;11.876;2022-11-15T18:33:15;94579.50;;;4.78;100.00
23589;BME280;11972;48.078;11.876;2022-11-15T18:37:15;94587.22;;;4.71;100.00
23589;BME280;11972;48.078;11.876;2022-11-15T18:41:18;94579.88;;;4.66;100.00
23589;BME280;11972;48.078;11.876;2022-11-15T18:45:19;94573.34;;;4.62;100.00
23589;BME280;11972;48.078;11.876;2022-11-15T18:49:20;94568.75;;;4.64;100.00
23589;BME280;11972;48.078;11.876;2022-11-15T18:53:20;94562.69;;;4.64;100.00
23589;BME280;11972;48.078;11.876;2022-11-15T18:57:20;94551.25;;;4.65;100.00
23589;BME280;11972;48.078;11.876;2022-11-15T19:01:26;94557.47;;;4.64;100.00
23589;BME280;11972;48.078;11.876;2022-11-15T19:05:27;94557.97;;;4.59;100.00
23589;BME280;11972;48.078;11.876;2022-11-15T19:09:27;94560.13;;;4.56;100.00
23589;BME280;11972;48.078;11.876;2022-11-15T19:13:31;94557.84;;;4.53;100.00
23589;BME280;11972;48.078;11.876;2022-11-15T19:17:32;94548.22;;;4.53;100.00
23589;BME280;11972;48.078;11.876;2022-11-15T19:21:33;94540.66;;;4.58;100.00
23589;BME280;11972;48.078;11.876;2022-11-15T19:25:33;94540.50;;;4.60;100.00
23589;BME280;11972;48.078;11.876;2022-11-15T19:29:33;94543.06;;;4.68;100.00
23589;BME280;11972;48.078;11.876;2022-11-15T19:33:34;94529.66;;;4.71;100.00
23589;BME280;11972;48.078;11.876;2022-11-15T19:37:34;94531.47;;;4.70;100.00
23589;BME280;11972;48.078;11.876;2022-11-15T19:41:36;94522.47;;;4.65;100.00
23589;BME280;11972;48.078;11.876;2022-11-15T19:45:37;94518.94;;;4.58;100.00
23589;BME280;11972;48.078;11.876;2022-11-15T19:49:38;94517.66;;;4.54;100.00
23589;BME280;11972;48.078;11.876;2022-11-15T19:53:38;94510.63;;;4.46;100.00
23589;BME280;11972;48.078;11.876;2022-11-15T19:57:39;94506.91;;;4.40;100.00
23589;BME280;11972;48.078;11.876;2022-11-15T20:01:40;94518.03;;;4.34;100.00
23589;BME280;11972;48.078;11.876;2022-11-15T20:05:42;94513.94;;;4.32;100.00
23589;BME280;11972;48.078;11.876;2022-11-15T20:09:42;94498.44;;;4.30;100.00
23589;BME280;11972;48.078;11.876;2022-11-15T20:13:43;94489.78;;;4.30;100.00
23589;BME280;11972;48.078;11.876;2022-11-15T20:17:43;94488.97;;;4.29;100.00
23589;BME280;11972;48.078;11.876;2022-11-15T20:21:45;94489.59;;;4.31;100.00
23589;BME280;11972;48.078;11.876;2022-11-15T20:25:46;94497.59;;;4.38;100.00
23589;BME280;11972;48.078;11.876;2022-11-15T20:29:47;94496.25;;;4.50;100.00
23589;BME280;11972;48.078;11.876;2022-11-15T20:33:47;94485.53;;;4.68;100.00
23589;BME280;11972;48.078;11.876;2022-11-15T20:37:48;94492.94;;;4.87;100.00
23589;BME280;11972;48.078;11.876;2022-11-15T20:41:48;94466.69;;;5.04;100.00
23589;BME280;11972;48.078;11.876;2022-11-15T20:45:49;94468.72;;;5.16;100.00
23589;BME280;11972;48.078;11.876;2022-11-15T20:49:49;94455.75;;;5.23;100.00
23589;BME280;11972;48.078;11.876;2022-11-15T20:53:49;94453.88;;;5.32;100.00
23589;BME280;11972;48.078;11.876;2022-11-15T20:57:50;94445.16;;;5.39;100.00
23589;BME280;11972;48.078;11.876;2022-11-15T21:01:50;94432.97;;;5.46;100.00
23589;BME280;11972;48.078;11.876;2022-11-15T21:05:52;94437.16;;;5.56;100.00
23589;BME280;11972;48.078;11.876;2022-11-15T21:09:52;94437.91;;;5.64;100.00
23589;BME280;11972;48.078;11.876;2022-11-15T21:14:11;94438.28;;;5.76;100.00
23589;BME280;11972;48.078;11.876;2022-11-15T21:18:12;94437.19;;;5.85;100.00
23589;BME280;11972;48.078;11.876;2022-11-15T21:22:13;94441.38;;;5.94;100.00
23589;BME280;11972;48.078;11.876;2022-11-15T21:26:14;94423.50;;;5.98;100.00
23589;BME280;11972;48.078;11.876;2022-11-15T21:30:14;94409.84;;;6.03;100.00
23589;BME280;11972;48.078;11.876;2022-11-15T21:34:15;94400.16;;;6.03;100.00
23589;BME280;11972;48.078;11.876;2022-11-15T21:38:16;94400.97;;;6.04;100.00
23589;BME280;11972;48.078;11.876;2022-11-15T21:42:16;94392.13;;;6.05;100.00
23589;BME280;11972;48.078;11.876;2022-11-15T21:46:17;94393.75;;;6.06;100.00
23589;BME280;11972;48.078;11.876;2022-11-15T21:50:17;94378.19;;;6.04;100.00
23589;BME280;11972;48.078;11.876;2022-11-15T21:54:17;94367.56;;;6.06;100.00
23589;BME280;11972;48.078;11.876;2022-11-15T21:58:18;94367.16;;;6.09;100.00
23589;BME280;11972;48.078;11.876;2022-11-15T22:02:19;94359.94;;;6.11;100.00
23589;BME280;11972;48.078;11.876;2022-11-15T22:06:19;94358.31;;;6.10;100.00
23589;BME280;11972;48.078;11.876;2022-11-15T22:10:20;94349.47;;;6.11;100.00
23589;BME280;11972;48.078;11.876;2022-11-15T22:14:20;94342.59;;;6.10;100.00
23589;BME280;11972;48.078;11.876;2022-11-15T22:18:21;94334.09;;;6.08;100.00
23589;BME280;11972;48.078;11.876;2022-11-15T22:22:22;94327.22;;;6.07;100.00
23589;BME280;11972;48.078;11.876;2022-11-15T22:26:23;94324.81;;;6.05;100.00
23589;BME280;11972;48.078;11.876;2022-11-15T22:30:23;94312.22;;;6.01;100.00
23589;BME280;11972;48.078;11.876;2022-11-15T22:34:23;94313.28;;;5.91;100.00
23589;BME280;11972;48.078;11.876;2022-11-15T22:38:24;94302.28;;;5.81;100.00